Time;durP1;ratioP1;P1;durP2;ratioP2;P2;SDS_P1;SDS_P2;PMS_P1;PMS_P2;Temp;Humidity;BMP_temperature;BMP_pressure;BME280_temperature;BME280_humidity;BME280_pressure;Samples;Min_cycle;Max_cycle;Signal;HPM_P1;HPM_P2
2021/07/27 00:01:22;;;;;;;10.55;7.73;;;;;;;21.08;72.16;96361.88;128099;1093;22783;-89
2021/07/27 00:03:54;;;;;;;12.48;8.20;;;;;;;21.08;72.57;96361.88;128112;1093;22840;-87
2021/07/27 00:06:25;;;;;;;10.68;7.75;;;;;;;21.05;72.58;96365.28;128817;1093;24792;-88
2021/07/27 00:08:58;;;;;;;11.30;8.35;;;;;;;21.06;72.44;96356.06;129035;1093;24321;-89
2021/07/27 00:11:30;;;;;;;9.50;8.00;;;;;;;21.11;72.24;96358.47;128837;1093;22813;-89
2021/07/27 00:14:01;;;;;;;11.08;7.93;;;;;;;21.12;72.21;96356.59;128164;1093;27316;-90
2021/07/27 00:16:33;;;;;;;13.13;8.33;;;;;;;21.11;72.49;96358.47;128067;1090;24595;-89
2021/07/27 00:19:04;;;;;;;11.17;8.73;;;;;;;21.04;72.62;96353.73;128040;1092;22789;-90
2021/07/27 00:21:36;;;;;;;9.88;7.90;;;;;;;21.08;72.36;96358.41;128041;1093;22810;-90
2021/07/27 00:24:07;;;;;;;10.63;7.85;;;;;;;21.11;72.46;96358.47;128032;1093;30948;-90
2021/07/27 00:26:39;;;;;;;12.43;8.55;;;;;;;21.14;72.33;96357.80;128126;1091;22964;-89
2021/07/27 00:29:12;;;;;;;12.33;8.83;;;;;;;21.13;72.30;96358.16;128098;1092;24807;-90
2021/07/27 00:31:43;;;;;;;10.35;8.58;;;;;;;21.13;72.25;96353.54;128043;1092;24304;-89
2021/07/27 00:34:14;;;;;;;12.75;7.98;;;;;;;21.15;72.48;96353.19;128123;1093;26248;-90
2021/07/27 00:36:45;;;;;;;11.18;8.95;;;;;;;21.15;72.39;96343.18;128122;1093;23047;-88
2021/07/27 00:39:17;;;;;;;13.18;9.28;;;;;;;21.16;72.74;96346.66;128145;1093;25028;-89
2021/07/27 00:41:48;;;;;;;10.48;8.60;;;;;;;21.20;72.90;96350.98;127991;1093;23607;-88
2021/07/27 00:44:19;;;;;;;12.00;7.90;;;;;;;21.23;72.74;96352.97;128093;1092;24431;-88
2021/07/27 00:46:51;;;;;;;11.05;8.40;;;;;;;21.23;72.65;96346.80;128050;1093;23631;-88
2021/07/27 00:49:22;;;;;;;12.00;8.75;;;;;;;21.23;72.99;96352.19;127874;1093;23611;-89
2021/07/27 00:51:53;;;;;;;11.38;7.93;;;;;;;21.21;72.88;96357.16;128008;1092;24065;-90
2021/07/27 00:54:25;;;;;;;11.30;8.53;;;;;;;21.21;72.77;96384.89;127891;1091;24449;-89
2021/07/27 00:56:56;;;;;;;13.00;9.58;;;;;;;21.15;72.84;96386.31;127757;1093;26898;-90
2021/07/27 00:59:29;;;;;;;12.33;9.53;;;;;;;21.20;73.23;96391.42;127885;1092;25928;-89
2021/07/27 01:02:01;;;;;;;11.78;8.18;;;;;;;21.24;72.87;96388.80;127896;1092;25993;-90
2021/07/27 01:04:32;;;;;;;12.80;8.95;;;;;;;21.30;72.98;96380.13;127924;1092;23173;-89
2021/07/27 01:07:03;;;;;;;12.33;8.60;;;;;;;21.33;73.10;96392.90;127934;1092;23584;-89
2021/07/27 01:09:35;;;;;;;10.80;8.03;;;;;;;21.34;72.94;96380.97;127959;1092;25065;-89
2021/07/27 01:12:07;;;;;;;13.90;9.30;;;;;;;21.30;72.82;96382.82;127870;1092;22777;-90
2021/07/27 01:14:38;;;;;;;11.25;8.20;;;;;;;21.27;73.59;96390.84;128044;1092;22741;-90
2021/07/27 01:17:10;;;;;;;13.00;8.78;;;;;;;21.26;73.09;96386.58;127841;1092;38625;-90
2021/07/27 01:19:50;;;;;;;11.30;8.40;;;;;;;21.19;73.16;96392.56;127909;1092;23323;-89
2021/07/27 01:39:27;;;;;;;12.53;8.48;;;;;;;20.87;73.84;96401.84;128081;1092;24385;-89
2021/07/27 01:42:07;;;;;;;11.70;8.70;;;;;;;20.85;74.16;96406.80;127993;1092;24986;-90
2021/07/27 01:44:44;;;;;;;10.60;8.43;;;;;;;20.84;74.12;96407.93;128007;1093;25284;-89
2021/07/27 01:47:17;;;;;;;13.63;8.50;;;;;;;20.79;73.96;96418.95;128014;1093;24811;-90
2021/07/27 01:49:50;;;;;;;10.43;8.33;;;;;;;20.77;74.28;96419.30;127951;1093;22928;-88
2021/07/27 01:52:24;;;;;;;12.20;8.88;;;;;;;20.73;74.28;96427.31;127859;1092;24882;-90
2021/07/27 01:54:56;;;;;;;11.38;9.18;;;;;;;20.74;74.42;96426.18;128006;1092;22786;-88
2021/07/27 01:57:31;;;;;;;13.37;9.27;;;;;;;20.69;73.99;96428.33;128019;1091;23352;-91
2021/07/27 02:00:10;;;;;;;13.48;9.15;;;;;;;20.53;74.21;96441.02;128042;1093;23364;-89
2021/07/27 02:02:42;;;;;;;11.90;9.40;;;;;;;20.37;74.64;96449.83;127958;1092;24917;-89
2021/07/27 02:05:15;;;;;;;13.83;8.85;;;;;;;20.27;74.86;96460.30;128022;1093;24430;-89
2021/07/27 02:07:56;;;;;;;12.95;9.30;;;;;;;20.16;75.88;96460.04;127886;1092;22966;-90
2021/07/27 02:10:28;;;;;;;13.95;9.83;;;;;;;20.09;76.02;96473.29;127796;1093;23510;-89
2021/07/27 02:13:02;;;;;;;12.45;10.20;;;;;;;20.08;76.21;96479.80;127996;1093;27210;-90
2021/07/27 02:15:40;;;;;;;13.75;9.18;;;;;;;20.08;76.21;96480.58;128064;1092;22825;-90
2021/07/27 02:18:12;;;;;;;13.60;9.20;;;;;;;20.21;76.34;96485.92;127827;1092;23629;-89
2021/07/27 02:20:44;;;;;;;12.83;9.28;;;;;;;20.24;76.00;96483.32;128071;1093;22786;-90
2021/07/27 02:23:16;;;;;;;14.50;9.83;;;;;;;20.19;76.44;96485.48;128069;1093;22816;-91
2021/07/27 02:25:47;;;;;;;12.00;9.05;;;;;;;20.10;76.21;96489.09;127972;1092;22795;-88
2021/07/27 02:28:19;;;;;;;14.48;9.18;;;;;;;20.11;76.51;96490.66;127990;1092;23376;-87
2021/07/27 02:30:55;;;;;;;10.78;8.80;;;;;;;20.08;76.18;96485.97;127892;1093;23524;-89
2021/07/27 02:33:28;;;;;;;14.93;9.53;;;;;;;20.04;76.47;96490.47;128056;1093;24408;-90
2021/07/27 02:35:59;;;;;;;11.95;8.88;;;;;;;20.03;76.50;96491.60;127957;1092;23504;-89
2021/07/27 02:38:31;;;;;;;14.63;8.40;;;;;;;20.11;77.02;96495.26;128021;1091;23163;-90
2021/07/27 02:41:02;;;;;;;14.50;9.48;;;;;;;20.20;76.85;96497.81;127993;1092;23201;-90
2021/07/27 02:43:33;;;;;;;10.95;8.45;;;;;;;20.26;76.87;96502.59;128043;1093;22786;-90
2021/07/27 02:46:05;;;;;;;12.20;9.28;;;;;;;20.28;76.50;96503.06;127917;1092;22813;-89
2021/07/27 02:48:37;;;;;;;11.35;8.58;;;;;;;20.32;76.90;96498.55;128021;1092;24953;-89
2021/07/27 02:51:11;;;;;;;10.88;8.20;;;;;;;20.37;77.24;96498.30;127990;1093;23445;-90
2021/07/27 02:53:42;;;;;;;11.88;9.25;;;;;;;20.24;77.23;96512.15;127969;1091;27011;-90
2021/07/27 02:56:14;;;;;;;10.70;8.48;;;;;;;20.02;77.83;96513.47;128117;1092;28094;-90
2021/07/27 02:58:45;;;;;;;12.25;8.48;;;;;;;19.88;78.11;96516.53;127991;1092;24530;-90
2021/07/27 03:01:16;;;;;;;12.05;9.13;;;;;;;19.80;78.37;96509.37;128031;1092;23628;-90
2021/07/27 03:03:49;;;;;;;13.83;8.48;;;;;;;19.76;78.74;96522.72;128081;1093;26632;-89
2021/07/27 03:06:21;;;;;;;11.65;8.73;;;;;;;19.73;78.45;96515.34;127999;1092;23439;-89
2021/07/27 03:09:14;;;;;;;12.93;8.38;;;;;;;19.75;78.61;96512.30;128123;1093;26112;-90
2021/07/27 03:11:45;;;;;;;13.50;8.93;;;;;;;19.73;78.61;96517.24;128056;1091;25148;-89
2021/07/27 03:14:17;;;;;;;13.00;9.05;;;;;;;19.76;78.67;96519.25;128032;1092;22813;-90
2021/07/27 03:16:49;;;;;;;12.88;8.83;;;;;;;19.70;78.55;96512.52;128070;1093;23146;-91
2021/07/27 03:19:20;;;;;;;13.63;9.10;;;;;;;19.73;78.75;96515.34;127941;1093;22813;-89
2021/07/27 03:21:52;;;;;;;14.15;9.50;;;;;;;19.77;78.67;96520.81;128049;1093;22787;-90
2021/07/27 03:24:23;;;;;;;10.85;8.83;;;;;;;19.77;78.60;96520.81;127977;1093;23545;-90
2021/07/27 03:26:54;;;;;;;12.68;9.45;;;;;;;19.79;78.83;96515.88;128065;1092;22790;-91
2021/07/27 03:29:26;;;;;;;12.87;9.83;;;;;;;19.76;78.86;96516.56;127688;1093;22829;-89
2021/07/27 03:31:58;;;;;;;13.48;8.38;;;;;;;19.80;79.13;96520.13;127999;1093;24406;-90
2021/07/27 03:34:29;;;;;;;12.27;8.93;;;;;;;19.86;79.12;96516.88;127946;1092;23319;-90
2021/07/27 03:37:00;;;;;;;12.98;9.85;;;;;;;19.82;78.60;96531.33;128009;1093;23725;-90
2021/07/27 03:39:31;;;;;;;14.05;8.88;;;;;;;19.81;78.91;96532.45;127969;1093;25797;-90
2021/07/27 03:42:03;;;;;;;12.83;9.05;;;;;;;19.72;79.05;96526.44;128031;1093;24304;-90
2021/07/27 03:44:34;;;;;;;12.70;8.50;;;;;;;19.69;79.16;96524.41;127945;1093;22810;-90
2021/07/27 03:47:10;;;;;;;13.03;9.50;;;;;;;19.77;79.57;96524.28;127996;1092;22835;-90
2021/07/27 03:49:41;;;;;;;12.00;8.30;;;;;;;19.92;79.84;96516.63;128070;1092;22810;-89
2021/07/27 03:52:13;;;;;;;10.60;8.43;;;;;;;20.00;79.83;96513.81;127685;1093;23515;-89
2021/07/27 03:54:45;;;;;;;11.90;8.90;;;;;;;20.13;79.86;96512.66;128124;1092;22816;-89
2021/07/27 03:57:16;;;;;;;12.28;8.85;;;;;;;20.27;79.76;96503.38;127755;1093;22812;-90
2021/07/27 03:59:48;;;;;;;12.53;8.73;;;;;;;20.42;79.68;96508.08;128079;1093;23951;-89
2021/07/27 04:02:19;;;;;;;13.03;8.93;;;;;;;20.58;79.43;96514.28;128052;1093;22793;-89
2021/07/27 04:04:50;;;;;;;14.18;9.30;;;;;;;20.66;79.06;96507.94;128058;1092;23619;-88
2021/07/27 04:07:22;;;;;;;13.50;9.23;;;;;;;20.68;78.98;96508.37;128056;1093;24294;-90
2021/07/27 04:09:53;;;;;;;12.23;8.40;;;;;;;20.62;79.46;96498.98;128091;1093;22771;-88
2021/07/27 04:12:24;;;;;;;11.03;9.10;;;;;;;20.63;79.45;96505.94;128078;1092;22806;-89
2021/07/27 04:14:56;;;;;;;12.05;8.85;;;;;;;20.71;79.34;96507.70;128164;1092;22812;-90
2021/07/27 04:17:27;;;;;;;11.27;8.77;;;;;;;20.79;79.08;96497.88;127678;1092;23411;-89
2021/07/27 04:19:58;;;;;;;13.20;9.60;;;;;;;20.83;79.33;96487.98;128077;1093;26101;-88
2021/07/27 04:22:30;;;;;;;11.78;9.15;;;;;;;20.72;79.08;96495.80;128041;1093;23317;-89
2021/07/27 04:25:01;;;;;;;13.58;9.23;;;;;;;20.73;79.18;96488.49;128052;1092;23963;-88
2021/07/27 04:27:33;;;;;;;15.60;9.43;;;;;;;20.86;79.52;96498.06;127702;1091;22800;-89
2021/07/27 04:30:05;;;;;;;16.30;10.33;;;;;;;20.96;79.48;96491.36;127927;1092;23235;-90
2021/07/27 04:32:36;;;;;;;10.53;8.40;;;;;;;21.01;79.37;96493.80;128060;1092;22822;-89
2021/07/27 04:35:09;;;;;;;13.90;9.50;;;;;;;21.01;79.45;96493.80;128074;1092;27192;-90
2021/07/27 04:37:41;;;;;;;11.58;8.60;;;;;;;21.09;79.66;96483.96;128076;1093;33276;-90
2021/07/27 04:40:13;;;;;;;12.60;9.65;;;;;;;21.10;79.31;96480.13;128107;1092;22945;-90
2021/07/27 04:42:46;;;;;;;13.25;10.30;;;;;;;21.14;79.67;96478.33;128133;1092;22745;-89
2021/07/27 04:45:17;;;;;;;15.98;10.80;;;;;;;21.20;79.25;96471.52;128111;1091;24164;-89
2021/07/27 04:47:49;;;;;;;13.65;9.38;;;;;;;21.36;79.41;96471.53;128127;1092;23047;-90
2021/07/27 04:50:20;;;;;;;15.20;11.18;;;;;;;21.53;79.38;96476.53;128092;1093;25692;-88
2021/07/27 04:52:58;;;;;;;10.73;8.93;;;;;;;21.73;79.28;96482.76;128113;1093;22830;-89
2021/07/27 04:55:35;;;;;;;12.53;9.00;;;;;;;22.10;78.14;96466.95;128079;1092;22853;-89
2021/07/27 04:58:06;;;;;;;9.58;7.10;;;;;;;22.48;77.25;96469.62;127814;1092;27905;-90
2021/07/27 05:00:38;;;;;;;9.63;7.10;;;;;;;23.10;74.96;96464.92;128088;1092;26963;-90
2021/07/27 05:03:09;;;;;;;9.53;6.68;;;;;;;24.83;76.09;96464.77;128109;1092;23524;-90
2021/07/27 05:05:41;;;;;;;9.43;6.70;;;;;;;26.93;72.86;96460.38;127971;1093;24370;-91
2021/07/27 05:08:12;;;;;;;11.40;8.30;;;;;;;28.77;70.55;96462.98;127750;1092;25245;-90
2021/07/27 05:10:43;;;;;;;8.73;6.38;;;;;;;30.38;66.11;96457.51;128075;1093;22931;-90
2021/07/27 05:13:15;;;;;;;7.58;6.00;;;;;;;31.61;61.89;96442.30;128121;1092;24320;-89
2021/07/27 05:15:46;;;;;;;8.93;6.08;;;;;;;31.99;59.03;96454.93;128142;1093;22855;-89
2021/07/27 05:18:19;;;;;;;7.93;5.65;;;;;;;32.77;54.16;96461.48;128166;1093;22793;-92
2021/07/27 05:20:50;;;;;;;6.90;5.28;;;;;;;32.68;52.58;96462.09;128002;1093;22796;-87
2021/07/27 05:23:22;;;;;;;7.50;4.95;;;;;;;33.80;53.16;96452.69;128066;1092;26629;-88
2021/07/27 05:25:53;;;;;;;7.13;4.83;;;;;;;35.04;50.36;96467.53;127776;1093;22826;-89
2021/07/27 05:28:25;;;;;;;6.95;5.73;;;;;;;35.33;47.92;96457.14;128058;1093;22809;-88
2021/07/27 05:30:56;;;;;;;6.40;5.05;;;;;;;35.90;47.16;96444.17;128089;1092;22816;-88
2021/07/27 05:33:28;;;;;;;7.50;5.70;;;;;;;36.34;44.37;96444.16;128084;1093;23012;-90
2021/07/27 05:36:00;;;;;;;5.43;4.15;;;;;;;36.78;44.09;96446.80;128087;1092;22794;-89
2021/07/27 05:38:31;;;;;;;5.55;4.30;;;;;;;37.47;42.34;96448.38;128070;1093;23675;-88
2021/07/27 05:41:02;;;;;;;5.80;4.50;;;;;;;37.53;41.72;96438.99;128083;1092;24751;-88
2021/07/27 05:43:34;;;;;;;8.53;5.03;;;;;;;37.78;40.52;96434.41;128076;1092;23390;-88
2021/07/27 05:46:07;;;;;;;5.53;4.85;;;;;;;38.23;40.28;96431.58;127999;1093;24541;-88
2021/07/27 05:48:41;;;;;;;5.78;4.85;;;;;;;38.70;38.95;96444.05;128069;1092;23034;-90
2021/07/27 05:51:14;;;;;;;5.15;4.45;;;;;;;39.26;37.46;96439.77;128034;1093;22945;-89
2021/07/27 05:53:45;;;;;;;5.23;4.58;;;;;;;39.59;36.78;96444.50;128078;1092;22871;-88
2021/07/27 05:56:17;;;;;;;5.48;4.13;;;;;;;40.15;36.23;96437.23;128150;1093;26922;-89
2021/07/27 05:58:48;;;;;;;4.93;4.33;;;;;;;40.74;35.25;96439.95;128183;1093;22875;-89
2021/07/27 06:01:19;;;;;;;6.80;4.23;;;;;;;40.93;34.54;96444.05;128379;1093;22783;-86
2021/07/27 06:03:51;;;;;;;4.43;3.83;;;;;;;41.41;34.18;96444.47;128785;1093;22825;-87
2021/07/27 06:06:22;;;;;;;5.00;4.03;;;;;;;42.06;32.54;96458.09;128756;1092;23288;-88
2021/07/27 06:08:53;;;;;;;4.78;3.80;;;;;;;42.21;31.80;96460.80;128224;1093;22813;-89
2021/07/27 06:11:25;;;;;;;5.05;3.78;;;;;;;42.33;31.55;96449.26;128105;1092;26232;-88
2021/07/27 06:13:56;;;;;;;4.15;3.70;;;;;;;43.04;30.97;96462.74;128052;1092;22784;-89
2021/07/27 06:16:27;;;;;;;4.28;3.40;;;;;;;43.41;28.93;96455.10;128055;1092;25198;-89
2021/07/27 06:18:59;;;;;;;4.10;3.80;;;;;;;43.77;29.60;96461.08;127835;1092;24365;-89
2021/07/27 06:21:30;;;;;;;4.37;3.67;;;;;;;44.64;28.93;96454.63;128104;1092;23353;-88
2021/07/27 06:24:02;;;;;;;6.13;2.93;;;;;;;44.93;26.44;96453.34;127735;1093;22937;-88
2021/07/27 06:26:33;;;;;;;4.78;3.43;;;;;;;44.85;26.69;96455.09;128061;1093;24858;-90
2021/07/27 06:29:05;;;;;;;4.68;3.63;;;;;;;44.75;25.81;96459.43;127883;1092;23045;-88
2021/07/27 06:31:37;;;;;;;4.53;3.55;;;;;;;44.94;26.70;96454.87;127936;1093;23771;-90
2021/07/27 06:34:08;;;;;;;5.23;3.93;;;;;;;45.35;25.55;96454.27;128049;1092;24854;-89
2021/07/27 06:36:40;;;;;;;4.80;3.85;;;;;;;44.71;24.53;96454.86;128050;1093;35595;-88
2021/07/27 06:39:11;;;;;;;4.63;3.88;;;;;;;44.42;24.57;96461.72;128030;1093;25169;-89
2021/07/27 06:41:42;;;;;;;5.73;3.68;;;;;;;44.36;26.15;96463.00;128098;1092;22810;-89
2021/07/27 06:44:13;;;;;;;6.10;3.35;;;;;;;44.90;25.41;96460.70;128085;1093;26435;-89
2021/07/27 06:46:45;;;;;;;4.80;3.35;;;;;;;45.51;25.30;96462.59;128096;1092;22936;-88
2021/07/27 06:49:17;;;;;;;5.15;3.80;;;;;;;46.63;25.56;96461.94;128125;1093;23540;-88
2021/07/27 06:51:49;;;;;;;3.25;2.80;;;;;;;47.17;23.73;96463.24;128124;1091;24399;-90
2021/07/27 06:54:20;;;;;;;4.93;3.63;;;;;;;46.18;23.16;96460.75;128091;1093;23576;-87
2021/07/27 06:56:54;;;;;;;6.13;3.65;;;;;;;46.34;23.73;96459.86;128097;1092;22841;-89
2021/07/27 06:59:26;;;;;;;7.05;4.03;;;;;;;46.74;23.58;96466.69;128074;1092;22814;-89
2021/07/27 07:01:57;;;;;;;6.08;4.15;;;;;;;47.44;22.92;96464.97;128089;1092;22797;-90
2021/07/27 07:04:28;;;;;;;6.48;4.20;;;;;;;46.45;20.52;96459.78;128083;1092;25303;-89
2021/07/27 07:07:00;;;;;;;7.20;4.25;;;;;;;45.39;22.26;96475.11;128073;1092;22948;-89
2021/07/27 07:09:31;;;;;;;7.90;4.10;;;;;;;46.07;21.76;96469.99;128054;1093;24385;-89
2021/07/27 07:12:02;;;;;;;11.50;4.80;;;;;;;45.79;22.38;96473.69;128095;1092;22807;-89
2021/07/27 07:14:34;;;;;;;6.58;3.85;;;;;;;45.81;22.27;96473.17;128006;1093;22788;-89
2021/07/27 07:17:07;;;;;;;5.55;4.35;;;;;;;46.15;22.14;96476.55;127979;1091;22804;-89
2021/07/27 07:19:38;;;;;;;7.78;4.28;;;;;;;47.18;22.57;96490.03;128107;1093;24122;-88
2021/07/27 07:22:11;;;;;;;6.08;4.30;;;;;;;47.50;21.97;96490.16;128057;1092;23609;-88
2021/07/27 07:24:42;;;;;;;6.60;4.63;;;;;;;47.19;20.89;96488.74;128017;1092;24591;-89
2021/07/27 07:27:17;;;;;;;5.60;3.98;;;;;;;47.54;20.50;96490.64;128103;1092;23856;-89
2021/07/27 07:29:48;;;;;;;8.13;3.83;;;;;;;46.86;19.99;96501.78;128156;1092;26599;-90
2021/07/27 07:32:20;;;;;;;8.58;4.05;;;;;;;45.48;20.42;96496.47;127910;1092;22790;-86
2021/07/27 07:34:51;;;;;;;6.03;3.98;;;;;;;45.72;20.99;96507.08;128078;1092;24045;-89
2021/07/27 07:37:22;;;;;;;6.20;4.10;;;;;;;45.31;19.30;96506.95;128074;1092;24376;-88
2021/07/27 07:39:54;;;;;;;6.73;4.00;;;;;;;44.22;19.77;96515.08;128087;1093;22785;-89
2021/07/27 07:42:25;;;;;;;8.18;4.30;;;;;;;44.24;21.59;96511.77;128093;1092;22790;-88
2021/07/27 07:44:56;;;;;;;5.95;3.78;;;;;;;44.24;20.72;96520.92;128039;1093;24031;-89
2021/07/27 07:47:28;;;;;;;6.93;4.15;;;;;;;43.22;22.33;96509.80;128099;1093;23069;-89
2021/07/27 07:50:00;;;;;;;7.95;4.10;;;;;;;43.72;24.01;96517.69;128042;1092;23504;-89
2021/07/27 07:52:32;;;;;;;5.08;4.15;;;;;;;43.57;22.64;96523.44;128099;1093;24427;-90
2021/07/27 07:55:07;;;;;;;6.88;5.05;;;;;;;42.75;23.81;96525.91;128060;1093;22950;-90
2021/07/27 07:57:39;;;;;;;5.20;4.25;;;;;;;43.24;25.26;96521.98;128085;1092;23963;-90
2021/07/27 08:00:11;;;;;;;6.15;4.43;;;;;;;44.03;24.26;96531.50;128044;1092;25309;-89
2021/07/27 08:02:43;;;;;;;4.80;4.38;;;;;;;43.69;24.90;96536.19;128129;1092;22783;-89
2021/07/27 08:05:15;;;;;;;6.53;4.68;;;;;;;43.37;24.04;96529.95;128134;1092;23423;-90
2021/07/27 08:07:46;;;;;;;6.83;4.70;;;;;;;41.72;24.97;96526.59;127975;1092;222318;-92
2021/07/27 08:10:18;;;;;;;8.33;5.00;;;;;;;39.82;26.16;96531.73;126534;1093;1911032;-96
2021/07/27 08:12:51;;;;;;;7.78;5.38;;;;;;;37.25;28.36;96528.65;126639;1093;2071534;-96
2021/07/27 08:15:25;;;;;;;8.88;6.23;;;;;;;35.22;30.95;96535.88;128204;1092;44725;-95
2021/07/27 08:17:57;;;;;;;8.38;5.50;;;;;;;33.57;33.10;96552.66;128114;1092;35324;-92
2021/07/27 08:20:30;;;;;;;11.63;8.88;;;;;;;32.24;35.75;96559.45;128142;1093;23808;-92
2021/07/27 08:23:02;;;;;;;23.55;17.30;;;;;;;30.89;38.23;96561.63;128149;1093;25171;-93
2021/07/27 08:25:33;;;;;;;22.33;16.30;;;;;;;30.41;39.87;96557.16;128529;1093;22758;-93
2021/07/27 08:28:05;;;;;;;29.60;21.45;;;;;;;30.77;40.09;96556.70;128231;1092;26792;-93
2021/07/27 08:30:36;;;;;;;23.58;15.05;;;;;;;30.32;40.46;96565.06;128052;1093;28781;-92
2021/07/27 08:33:07;;;;;;;17.93;11.47;;;;;;;29.75;41.33;96569.14;128112;1092;22779;-91
2021/07/27 08:35:39;;;;;;;15.75;10.33;;;;;;;30.59;41.64;96559.66;128095;1092;28350;-92
2021/07/27 08:38:10;;;;;;;15.70;8.85;;;;;;;32.37;40.17;96557.62;128105;1093;25188;-92
2021/07/27 08:40:42;;;;;;;13.13;9.35;;;;;;;32.67;38.12;96556.64;128161;1092;27323;-93
2021/07/27 08:43:16;;;;;;;11.43;8.23;;;;;;;31.69;39.68;96571.00;128114;1093;25712;-91
2021/07/27 08:45:51;;;;;;;12.98;8.65;;;;;;;30.89;41.24;96567.88;128212;1093;60342;-91
2021/07/27 08:48:23;;;;;;;10.78;7.58;;;;;;;31.23;41.14;96576.02;128155;1093;22793;-87
2021/07/27 08:50:54;;;;;;;11.60;7.45;;;;;;;31.74;41.29;96586.98;128077;1092;42857;-87
2021/07/27 08:53:26;;;;;;;11.90;7.25;;;;;;;32.12;40.99;96587.50;128128;1092;25551;-86
2021/07/27 08:55:59;;;;;;;12.40;6.95;;;;;;;31.46;41.03;96583.49;128094;1092;22796;-87
2021/07/27 08:58:30;;;;;;;9.33;6.98;;;;;;;30.96;42.48;96586.16;128132;1093;22944;-85
2021/07/27 09:01:02;;;;;;;13.00;7.48;;;;;;;30.76;42.78;96593.48;127809;1092;22925;-86
2021/07/27 09:03:33;;;;;;;10.15;7.05;;;;;;;30.11;42.92;96591.45;128094;1092;24122;-86
2021/07/27 09:06:08;;;;;;;12.08;7.33;;;;;;;29.30;44.83;96603.81;128078;1093;26235;-87
2021/07/27 09:08:40;;;;;;;12.55;7.65;;;;;;;28.63;46.37;96594.80;128242;1091;40717;-86
2021/07/27 09:11:17;;;;;;;12.43;7.45;;;;;;;28.62;47.97;96593.24;128091;1092;23719;-86
2021/07/27 09:13:58;;;;;;;10.50;7.23;;;;;;;28.47;48.18;96596.42;128176;1093;22780;-87
2021/07/27 09:16:29;;;;;;;11.38;7.58;;;;;;;28.37;48.64;96598.01;128088;1093;28320;-84
2021/07/27 09:19:04;;;;;;;10.63;7.83;;;;;;;28.40;49.02;96602.67;128280;1093;25091;-92
2021/07/27 09:21:35;;;;;;;13.48;7.18;;;;;;;28.36;48.85;96599.96;128068;1092;25864;-93
2021/07/27 09:24:07;;;;;;;9.68;7.35;;;;;;;28.01;49.14;96602.73;128094;1091;27832;-90
2021/07/27 09:26:39;;;;;;;11.48;7.23;;;;;;;27.90;49.64;96607.44;128079;1092;22944;-91
2021/07/27 09:29:10;;;;;;;10.40;7.30;;;;;;;28.05;49.91;96603.52;128262;1093;22841;-88
2021/07/27 09:31:52;;;;;;;10.40;7.30;;;;;;;28.20;49.80;96612.45;128073;1093;22839;-91
2021/07/27 09:34:26;;;;;;;10.70;7.93;;;;;;;28.32;50.25;96610.11;128126;1092;22809;-89
2021/07/27 09:37:08;;;;;;;10.65;7.70;;;;;;;28.51;50.20;96610.82;128058;1092;23266;-90
2021/07/27 09:39:40;;;;;;;9.83;7.70;;;;;;;28.47;49.79;96620.97;128071;1093;22823;-90
2021/07/27 09:42:13;;;;;;;11.08;7.23;;;;;;;28.65;49.85;96621.68;128085;1092;26179;-90
2021/07/27 09:44:45;;;;;;;9.95;6.73;;;;;;;28.80;50.25;96623.17;128161;1092;23525;-90
2021/07/27 09:47:17;;;;;;;12.13;7.58;;;;;;;28.85;50.15;96619.23;128189;1092;23908;-90
2021/07/27 09:49:48;;;;;;;13.05;8.30;;;;;;;28.92;49.60;96617.30;128387;1093;22810;-90
2021/07/27 09:52:20;;;;;;;10.05;7.68;;;;;;;29.17;50.60;96621.84;128148;1093;22783;-90
2021/07/27 09:55:01;;;;;;;12.30;7.18;;;;;;;29.55;50.62;96615.34;128093;1093;27489;-90
2021/07/27 09:57:33;;;;;;;11.40;7.53;;;;;;;29.59;49.28;96603.64;128073;1092;23525;-90
2021/07/27 10:00:05;;;;;;;11.25;7.68;;;;;;;28.98;48.43;96604.00;128128;1092;25011;-89
2021/07/27 10:02:42;;;;;;;11.28;8.08;;;;;;;28.34;49.04;96618.67;128120;1092;22780;-90
2021/07/27 10:05:21;;;;;;;13.68;8.28;;;;;;;28.17;50.03;96618.69;128244;1093;25311;-91
2021/07/27 10:07:57;;;;;;;14.23;8.43;;;;;;;28.44;51.65;96622.55;128112;1092;23082;-90
2021/07/27 10:10:43;;;;;;;12.05;7.28;;;;;;;28.45;49.48;96623.32;128109;1092;22828;-90
2021/07/27 10:13:17;;;;;;;17.53;8.38;;;;;;;28.29;49.42;96615.55;128301;1093;23067;-90
2021/07/27 10:15:49;;;;;;;14.68;9.00;;;;;;;28.17;49.60;96613.23;128182;1093;22836;-89
2021/07/27 10:18:33;;;;;;;12.50;8.45;;;;;;;28.02;49.72;96628.84;128224;1092;23004;-89
2021/07/27 10:21:25;;;;;;;14.97;8.67;;;;;;;27.99;49.93;96624.15;128119;1093;22831;-90
2021/07/27 10:24:11;;;;;;;16.00;8.68;;;;;;;27.95;50.59;96615.98;127921;1092;23453;-90
2021/07/27 10:26:43;;;;;;;14.98;8.85;;;;;;;27.98;50.47;96615.20;127806;1093;23960;-90
2021/07/27 10:29:15;;;;;;;14.23;9.23;;;;;;;28.10;50.78;96605.84;128072;1093;23206;-91
2021/07/27 10:31:47;;;;;;;12.25;8.15;;;;;;;28.02;50.13;96605.09;128172;1092;22816;-91
2021/07/27 10:34:19;;;;;;;12.38;8.00;;;;;;;27.83;50.81;96613.66;128108;1092;26810;-90
2021/07/27 10:36:53;;;;;;;12.35;8.03;;;;;;;28.04;51.20;96604.69;128089;1093;22821;-87
2021/07/27 10:39:25;;;;;;;12.48;8.80;;;;;;;28.48;52.05;96606.16;128067;1093;22831;-90
2021/07/27 10:41:56;;;;;;;13.33;8.43;;;;;;;28.57;51.52;96606.50;128070;1093;23060;-89
2021/07/27 10:44:38;;;;;;;13.53;8.63;;;;;;;28.36;51.92;96610.86;128076;1092;24102;-89
2021/07/27 10:47:09;;;;;;;12.55;8.30;;;;;;;28.19;52.27;96608.94;128042;1093;25465;-89
2021/07/27 10:49:41;;;;;;;12.85;8.48;;;;;;;28.17;51.95;96611.29;128031;1093;26526;-89
2021/07/27 10:52:16;;;;;;;14.45;8.83;;;;;;;28.21;53.14;96606.59;128022;1093;24605;-89
2021/07/27 10:54:52;;;;;;;14.20;9.13;;;;;;;28.39;53.13;96607.34;128068;1092;22817;-90
2021/07/27 10:57:31;;;;;;;14.38;9.50;;;;;;;28.20;52.94;96602.31;128000;1092;22789;-89
2021/07/27 11:00:04;;;;;;;11.73;7.77;;;;;;;28.09;53.04;96607.01;127956;1092;26778;-90
2021/07/27 11:02:35;;;;;;;17.55;8.50;;;;;;;28.04;53.39;96602.74;127932;1092;22844;-89
2021/07/27 11:05:09;;;;;;;13.15;7.93;;;;;;;28.14;54.96;96595.70;128011;1093;22816;-88
2021/07/27 11:07:40;;;;;;;13.40;8.25;;;;;;;28.51;54.54;96597.18;127809;1092;22820;-89
2021/07/27 11:10:12;;;;;;;17.25;9.48;;;;;;;28.76;54.15;96597.86;127997;1093;23129;-88
2021/07/27 11:12:45;;;;;;;12.85;9.65;;;;;;;29.06;54.23;96597.33;127997;1092;22875;-89
2021/07/27 11:15:19;;;;;;;13.33;9.90;;;;;;;29.28;53.92;96603.45;128059;1092;22803;-89
2021/07/27 11:17:52;;;;;;;15.63;11.10;;;;;;;29.03;52.65;96591.91;127984;1093;22920;-87
2021/07/27 11:20:25;;;;;;;14.85;10.03;;;;;;;28.58;52.81;96586.26;127720;1093;43515;-89
2021/07/27 11:22:59;;;;;;;15.90;11.45;;;;;;;28.14;53.12;96584.02;127907;1093;27075;-90
2021/07/27 11:25:31;;;;;;;16.08;11.88;;;;;;;27.92;53.89;96583.30;127952;1091;24441;-89
2021/07/27 11:28:11;;;;;;;12.98;10.78;;;;;;;27.97;54.26;96580.94;127886;1093;22906;-89
2021/07/27 11:30:42;;;;;;;;;;;;;;;28.15;54.31;96585.56;127951;1092;25572;-90
2021/07/27 11:33:15;;;;;;;16.50;11.58;;;;;;;28.12;54.20;96587.13;127706;1092;22521;-90
2021/07/27 11:35:48;;;;;;;14.78;11.30;;;;;;;27.84;54.06;96584.46;127994;1092;27279;-90
2021/07/27 11:38:28;;;;;;;14.58;10.98;;;;;;;27.77;54.39;96596.16;127797;1093;23416;-89
2021/07/27 11:41:07;;;;;;;16.20;11.10;;;;;;;27.86;54.92;96590.30;128317;1093;23162;-89
2021/07/27 11:43:41;;;;;;;14.65;10.45;;;;;;;27.94;54.60;96586.41;127891;1093;22994;-88
2021/07/27 11:46:16;;;;;;;15.00;11.15;;;;;;;28.06;54.71;96575.09;127957;1093;27411;-89
2021/07/27 11:48:53;;;;;;;12.70;10.20;;;;;;;28.33;55.77;96581.67;128071;1093;26302;-89
2021/07/27 11:51:33;;;;;;;10.55;8.90;;;;;;;28.50;54.39;96581.99;128220;1092;26070;-89
2021/07/27 11:54:04;;;;;;;13.53;9.78;;;;;;;28.50;53.34;96582.77;128102;1093;22786;-89
2021/07/27 11:56:45;;;;;;;13.00;8.83;;;;;;;28.54;54.25;96582.75;128052;1093;24385;-89
2021/07/27 11:59:27;;;;;;;12.73;9.68;;;;;;;28.62;54.50;96578.83;128153;1092;23831;-88
2021/07/27 12:01:59;;;;;;;13.50;10.00;;;;;;;28.69;53.97;96579.55;128044;1092;23050;-88